This is the latest recevied weather packets stored in our database for station/object S54A-11. If no packets are shown the sender has not sent any weather packets the latest 1 day(s).
| Time | Temp. | Humidity | Pressure | Rain* | Wind** | Luminosity | Snow |
|---|---|---|---|---|---|---|---|
| 1778084065 | 17.22° C | 57% | 1010.9 hPa | - | - | - | - |
| 1778083165 | 18.33° C | 58% | 1011 hPa | - | - | - | - |
| 1778082265 | 17.78° C | 57% | 1011.1 hPa | - | - | - | - |
| 1778081365 | 17.78° C | 57% | 1011.4 hPa | - | - | - | - |
| 1778074164 | 15.56° C | 58% | 1012.1 hPa | - | - | - | - |
| 1778072364 | 15.56° C | 59% | 1012.1 hPa | - | - | - | - |
| 1778071464 | 16.11° C | 59% | 1012.1 hPa | - | - | - | - |
| 1778070564 | 15.56° C | 58% | 1012.2 hPa | - | - | - | - |
| 1778069664 | 15.56° C | 57% | 1012.2 hPa | - | - | - | - |
| 1778068764 | 15.56° C | 57% | 1012.2 hPa | - | - | - | - |
| 1778067864 | 15° C | 59% | 1012.4 hPa | - | - | - | - |
| 1778062463 | 16.11° C | 56% | 1012.9 hPa | - | - | - | - |
| 1778059763 | 15.56° C | 59% | 1013.2 hPa | - | - | - | - |
| 1778058863 | 16.67° C | 56% | 1013 hPa | - | - | - | - |
| 1778057963 | 17.22° C | 55% | 1013 hPa | - | - | - | - |
| 1778057063 | 17.22° C | 55% | 1012.9 hPa | - | - | - | - |
| 1778056163 | 17.78° C | 53% | 1012.9 hPa | - | - | - | - |
| 1778055263 | 18.89° C | 53% | 1012.7 hPa | - | - | - | - |
| 1778054363 | 18.33° C | 53% | 1012.4 hPa | - | - | - | - |
| 1778053463 | 18.33° C | 52% | 1012.2 hPa | - | - | - | - |
| 1778052563 | 17.78° C | 55% | 1012.3 hPa | - | - | - | - |
| 1778050762 | 19.44° C | 52% | 1012.5 hPa | - | - | - | - |
| 1778047162 | 15.56° C | 58% | 1012.4 hPa | - | - | - | - |
| 1778046262 | 15° C | 57% | 1012.4 hPa | - | - | - | - |
| 1778045362 | 14.44° C | 56% | 1012.5 hPa | - | - | - | - |
* Rain since midnight (hover to see other rain measurements)
** Current wind speed in m/s (hover to see current wind gust speed)